ADDS METAR Data INFO
IDs: Format: Raw Decoded Include TAF

Data at: 0306 UTC 21 Oct 2017

PADK 210256Z AUTO 27009KT 10SM FEW032 BKN080 OVC095 06/M01 A2973 RMK AO2 RAB09E50 SLP066 P0000 60000 T00561006 53014
PADK 210156Z AUTO 30011G18KT 10SM BKN039 BKN048 06/M01 A2971 RMK AO2 SLP059 T00611006
PADK 202356Z AUTO 32018G27KT 10SM SCT042 06/00 A2969 RMK AO2 PK WND 34027/2356 RAB04E16 SLP053 P0000 60000 T00610000 10072 20050 51025
PADK 202256Z AUTO 32018G25KT 10SM FEW032 SCT048 BKN060 06/01 A2967 RMK AO2 PK WND 31029/2223 RAB20E36 SLP048 P0000 T00610006
PADK 202156Z AUTO 34021G25KT 10SM FEW040 BKN050 BKN055 07/00 A2963 RMK AO2 PK WND 33028/2134 SLP033 T00720000
PADK 202056Z AUTO 33019G25KT 10SM FEW027 BKN033 BKN042 06/00 A2961 RMK AO2 PK WND 34031/2003 RAB42E55 SLP027 P0000 60000 T00610000 51052
PADK 201956Z AUTO 34020G30KT 10SM FEW024 BKN042 OVC050 06/01 A2957 RMK AO2 PK WND 35033/1859 RAB1859E14 SLP013 P0000 T00560011
PADK 201939Z AUTO 35022G29KT 10SM SCT023 BKN030 OVC044 06/02 A2956 RMK AO2 PK WND 35033/1859 RAB1859E14 P0000
PADK 201924Z AUTO 35020G27KT 10SM FEW018 BKN027 OVC044 06/03 A2955 RMK AO2 PK WND 35033/1859 RAB1859E14 PRESRR P0000
PADK 201912Z AUTO 34021G29KT 10SM -RA FEW023 BKN037 OVC048 06/02 A2953 RMK AO2 PK WND 35033/1859 RAB1859 P0000
PADK 201856Z AUTO 34021G29KT 10SM FEW018 BKN026 OVC048 06/02 A2952 RMK AO2 PK WND 35033/1845 RAB32E52 SLP995 P0000 T00560022
PADK 201813Z AUTO 35026G32KT 10SM BKN025 BKN036 OVC100 06/03 A2947 RMK AO2 PK WND 34032/1811
PADK 201756Z AUTO 34022G33KT 10SM SCT027 BKN034 BKN042 06/02 A2946 RMK AO2 PK WND 34040/1710 RAE1658B14E42 SLP975 P0001 60007 T00610022 10067 20050 53079
PADK 201733Z AUTO 36022G33KT 7SM -RA BKN022 BKN033 OVC080 05/03 A2943 RMK AO2 PK WND 34040/1710 RAE1658B14 P0001
PADK 201726Z AUTO 34023G32KT 8SM -RA SCT020 BKN035 OVC075 06/03 A2943 RMK AO2 PK WND 34040/1710 RAE1658B14 PRESRR P0001
PADK 201656Z AUTO 35020G29KT 10SM -RA SCT018 BKN028 OVC047 06/03 A2938 RMK AO2 PK WND 35036/1632 SLP949 P0000 T00610033
PADK 201556Z AUTO 35026G36KT 9SM -RA BKN022 BKN033 OVC042 07/04 A2930 RMK AO2 PK WND 36038/1531 PRESRR SLP923 P0001 T00670039
PADK 201456Z AUTO 35023G30KT 9SM -RA SCT019 BKN029 OVC041 06/04 A2923 RMK AO2 PK WND 34032/1431 RAE06B45 SLP897 P0000 60005 T00610044 53041
PADK 201356Z AUTO 35016G25KT 4SM -RA BR BKN015 BKN022 OVC033 06/04 A2918 RMK AO2 RAB35 SLP881 P0004 T00610039
PADK 201256Z AUTO 33012KT 10SM SCT019 BKN023 BKN034 06/04 A2914 RMK AO2 RAE25 SLP866 P0001 T00610044
PADK 201210Z AUTO 35012KT 10SM -RA FEW016 BKN036 OVC055 06/04 A2911 RMK AO2 P0001
PADK 201156Z AUTO 36015G23KT 4SM -RA BR SCT014 BKN024 OVC039 06/04 A2910 RMK AO2 RAB1058E16B49 SLP856 P0001 60013 70041 T00610044 10061 20039 52008
PADK 201108Z AUTO 34009KT 10SM -RA FEW026 BKN041 OVC050 06/04 A2909 RMK AO2 RAB1058 P0000
PADK 201056Z AUTO 34010KT 10SM FEW014 BKN026 OVC046 06/04 A2908 RMK AO2 RAB17E41 SLP848 P0001 T00560044
PADK 200956Z AUTO 36004KT 10SM BKN020 OVC030 05/04 A2906 RMK AO2 RAE20 SLP841 P0000 T00500039 401000039
PADK 200934Z AUTO 00000KT 10SM FEW022 BKN029 OVC044 05/04 A2905 RMK AO2 RAE20 P0000
PADK 200856Z AUTO 00000KT 10SM -RA BKN031 OVC039 05/04 A2904 RMK AO2 SLP834 P0003 60011 T00500039 55001
PADK 200823Z AUTO 00000KT 10SM -RA OVC029 05/04 A2904 RMK AO2 P0002
PADK 200756Z AUTO 00000KT 7SM -RA OVC032 06/03 A2903 RMK AO2 SLP832 P0008 T00560033
PADK 200656Z AUTO 21005KT 9SM -RA FEW022 SCT028 OVC036 04/03 A2904 RMK AO2 RAB27 SLP833 P0000 T00440033
PADK 200645Z AUTO 00000KT 10SM -RA SCT022 BKN030 OVC036 04/03 A2904 RMK AO2 RAB27 P0000
PADK 200630Z AUTO 18003KT 10SM -RA BKN022 BKN031 OVC039 05/03 A2904 RMK AO2 RAB27 P0000
PADK 200609Z AUTO 00000KT 10SM SCT024 OVC035 05/03 A2904 RMK AO2
PADK 200556Z AUTO 00000KT 10SM BKN026 OVC030 06/03 A2904 RMK AO2 RAE07 SLP835 P0000 60006 T00560033 10089 20044 56017
PADK 200534Z AUTO 00000KT 10SM BKN028 OVC035 04/03 A2905 RMK AO2 RAE07 P0000
PADK 200456Z AUTO 21004KT 10SM -RA SCT030 BKN036 OVC050 05/04 A2906 RMK AO2 RAB11 SLP839 P0005 T00500039
PADK 200356Z AUTO 21014KT 10SM OVC046 07/04 A2907 RMK AO2 SLP844 T00720039
PADK 200256Z AUTO 22018KT 10SM FEW025 BKN037 BKN048 08/04 A2909 RMK AO2 PK WND 21026/0232 SLP852 60001 T00830044 56034
PADK 200203Z AUTO 22019KT 10SM SCT023 BKN030 BKN037 08/04 A2911 RMK AO2
PADK 200156Z AUTO 21018G24KT 10SM BKN023 BKN030 BKN035 08/04 A2911 RMK AO2 PK WND 21026/0144 RAE04 SLP858 P0000 T00830044
PADK 200109Z AUTO 21016KT 10SM SCT022 BKN039 BKN055 08/06 A2915 RMK AO2 RAE04 P0000
PADK 200056Z AUTO 23012G24KT 7SM -RA SCT020 BKN026 OVC050 06/04 A2916 RMK AO2 PK WND 21031/0001 SLP874 P0001 T00610044
PADK 192356Z AUTO 21021G25KT 10SM -RA FEW024 SCT034 BKN048 09/05 A2919 RMK AO2 PK WND 22031/2311 RAE30B47 SLP885 P0000 60001 T00890050 10100 20061 56036
PADK 192256Z AUTO 21019KT 6SM -RA SCT027 BKN036 OVC045 08/06 A2923 RMK AO2 PK WND 22031/2210 RAB27 SLP898 P0001 T00830056
PADK 192156Z AUTO 20022G30KT 10SM FEW029 BKN040 09/04 A2926 RMK AO2 PK WND 20033/2133 RAE10 SLP908 P0000 T00940039
PADK 191956Z AUTO 21018G24KT 9SM FEW027 BKN035 BKN070 08/04 A2933 RMK AO2 PK WND 21028/1917 SLP931 T00780039
PADK 191856Z AUTO 22017G22KT 8SM FEW027 SCT034 BKN049 07/03 A2934 RMK AO2 PK WND 22028/1802 SLP934 T00670033
PADK 191756Z AUTO 21014G22KT 9SM BKN035 OVC055 06/03 A2936 RMK AO2 PK WND 22028/1715 WSHFT 1649 RAE06 SLP942 P0000 60021 T00610028 10072 20056 57018
PADK 191725Z AUTO 21020G26KT 9SM SCT023 OVC050 07/04 A2938 RMK AO2 PK WND 22028/1715 WSHFT 1649 RAE06 P0000
PADK 191704Z AUTO 20014KT 10SM -RA SCT013 OVC023 07/04 A2938 RMK AO2 WSHFT 1649 P0000
PADK 191656Z AUTO 18011G25KT 4SM -RA BR BKN013 BKN020 OVC025 07/06 A2938 RMK AO2 PK WND 12034/1606 SLP950 P0008 T00720056
PADK 191652Z AUTO 18014G27KT 2 1/2SM -RA BR BKN013 OVC018 07/06 A2939 RMK AO2 PK WND 12034/1606 VIS 1 3/4V4 P0008
PADK 191556Z AUTO 13019G25KT 2 1/2SM -RA BR BKN019 OVC027 07/04 A2941 RMK AO2 PK WND 10036/1516 SLP959 P0005 T00670044
PADK 191530Z AUTO 13021G28KT 3SM -RA BR BKN017 BKN022 OVC027 07/04 A2943 RMK AO2 PK WND 10036/1516 P0002
PADK 191510Z AUTO 12024G31KT 2 1/2SM -RA BR BKN019 OVC025 06/04 A2944 RMK AO2 PK WND 11036/1457 P0001